Aérodrome :
LOGIN :

S'inscrire | Disclaimer

   EN    FR    IT 

 










Légende :    VFR   VFR Marginal   IFR   IFR Intensif   IFR Très Intensif
Visi : 
Plafond : 
>= 8 km
>= 3000ft
5 à 8 km
1000 à 3000 ft
1500m à 5 km
500 à 1000 ft
800 à 1500m
200 à 500 ft
< 800m
< 200 ft
Symboles :   Orages  Brouillard  Fortes neiges  Fortes précipitations  Vent > 20 kt
SIGMETs :   Divers  Orages  Givrage  Turbulence  Onde Orograph.  Cendres Volcan.






- Altitude de l'aérodrome : 1548 ft


LKNA - Náměšť Air Base

DERNIER METAR :
  • 300200Z 31008KT 9999 BKN013 OVC060 01/M01 Q1023

METARs EXPIRÉS :
  • 300130Z 31009KT 9999 BKN011 OVC060 01/M01 Q1022 RMK GRN
  • 300100Z 31009KT 9999 BKN011 OVC060 01/M01 Q1022 RMK GRN
  • 300030Z 31010KT 9999 SCT010 OVC060 01/M01 Q1022 RMK BLU
  • 300000Z 30008KT 9999 SCT009 BKN060 01/M01 Q1022 RMK BLU
  • 292330Z 30010KT 9999 FEW010 OVC060 01/M01 Q1022

TAF TAF LKNA
Valide du 30 à 00h jusqu'au 01 à 00h UTC


292300Z 3000/0100 32010KT 9999 BKN020
TEMPO 3000/3010 BKN012
PROB30
TEMPO 3000/3005 4000 SN BKN006
BECMG 3009/3011 31006KT BKN030
TEMPO 3010/3022 SCT035
PROB30
TEMPO 3018/0100 17006KT 4000 BR SCT010



MET'MAP, la Météo Aéronautique d'un coup d'oeil ! - Copyright ORBIFLY Décembre 2007 - Disclaimer

ORBIFLY MET'MAP TEAM :

Programmation & Développement : Alexandra Zaïnal
Sur une idée originale de : Baudouin d'Aumeries
Assistance à la programmation : Marc-Olivier Méhu
Soutien technique & logistique : Manuel Goepfert

Contact : metmap@orbifly.com




SOURCES & CREDITS :

   NOAA